createdAt,value
2022-08-29T00:00:32.428Z,99.90
2022-08-29T00:03:01.276Z,99.90
2022-08-29T00:05:33.639Z,99.90
2022-08-29T00:08:02.242Z,99.90
2022-08-29T00:10:31.816Z,99.90
2022-08-29T00:12:58.527Z,99.90
2022-08-29T00:15:26.032Z,99.90
2022-08-29T00:17:52.979Z,99.90
2022-08-29T00:20:22.932Z,99.90
2022-08-29T00:23:00.863Z,99.90
2022-08-29T00:25:27.980Z,99.90
2022-08-29T00:27:54.703Z,99.90
2022-08-29T00:30:23.683Z,99.90
2022-08-29T00:32:51.653Z,99.90
2022-08-29T00:35:23.187Z,99.90
2022-08-29T00:37:52.041Z,99.90
2022-08-29T00:40:23.381Z,99.90
2022-08-29T00:42:50.084Z,99.90
2022-08-29T00:45:17.958Z,99.90
2022-08-29T00:48:06.261Z,99.90
2022-08-29T00:50:38.645Z,99.90
2022-08-29T00:53:07.526Z,99.90
2022-08-29T00:55:35.952Z,99.90
2022-08-29T00:58:08.428Z,99.90
2022-08-29T01:00:36.004Z,99.90
2022-08-29T01:03:05.195Z,99.90
2022-08-29T01:05:32.746Z,99.90
2022-08-29T01:07:59.737Z,99.90
2022-08-29T01:10:45.097Z,99.90
2022-08-29T01:13:12.332Z,99.90
2022-08-29T01:15:41.954Z,99.90
2022-08-29T01:18:10.202Z,99.90
2022-08-29T01:21:01.382Z,99.90
2022-08-29T01:23:33.921Z,99.90
2022-08-29T01:26:02.476Z,99.90
2022-08-29T01:28:33.048Z,99.90
2022-08-29T01:31:05.042Z,99.90
2022-08-29T01:33:41.821Z,99.90
2022-08-29T01:36:10.569Z,99.90
2022-08-29T01:38:38.400Z,99.90
2022-08-29T01:41:05.687Z,99.90
2022-08-29T01:43:41.124Z,99.90
2022-08-29T01:46:08.941Z,99.90
2022-08-29T01:48:38.613Z,99.90
2022-08-29T01:51:05.639Z,99.90
2022-08-29T01:53:32.424Z,99.90
2022-08-29T01:55:59.076Z,99.90
2022-08-29T01:58:25.677Z,99.90
2022-08-29T02:00:52.528Z,99.90
2022-08-29T02:03:19.184Z,99.90
2022-08-29T02:05:47.785Z,99.90
2022-08-29T02:08:14.709Z,99.90
2022-08-29T02:10:41.525Z,99.90
2022-08-29T02:13:08.236Z,99.90
2022-08-29T02:15:35.658Z,99.90
2022-08-29T02:18:02.344Z,99.90
2022-08-29T02:20:29.200Z,99.90
2022-08-29T02:22:55.826Z,99.90
2022-08-29T02:25:40.970Z,99.90
2022-08-29T02:28:11.876Z,99.90
2022-08-29T02:30:40.578Z,99.90
2022-08-29T02:33:08.182Z,99.90
2022-08-29T02:35:37.965Z,99.90
2022-08-29T02:38:10.677Z,99.90
2022-08-29T02:40:37.938Z,99.90
2022-08-29T02:43:05.513Z,99.90
2022-08-29T02:45:32.664Z,99.90
2022-08-29T02:47:59.712Z,99.90
2022-08-29T02:50:26.407Z,99.90
2022-08-29T02:52:53.108Z,99.90
2022-08-29T02:55:21.731Z,99.90
2022-08-29T02:57:48.661Z,99.90
2022-08-29T03:00:19.248Z,99.90
2022-08-29T03:02:47.315Z,99.90
2022-08-29T03:05:16.144Z,99.90
2022-08-29T03:07:44.468Z,99.90
2022-08-29T03:10:12.646Z,99.90
2022-08-29T03:12:39.961Z,99.90
2022-08-29T03:15:08.062Z,99.90
2022-08-29T03:17:35.314Z,99.90
2022-08-29T03:20:02.676Z,99.90
2022-08-29T03:22:29.393Z,99.90
2022-08-29T03:24:56.065Z,99.90
2022-08-29T03:27:22.937Z,99.90
2022-08-29T03:29:49.556Z,99.90
2022-08-29T03:32:16.179Z,99.90
2022-08-29T03:34:42.825Z,99.90
2022-08-29T03:37:09.446Z,99.90
2022-08-29T03:39:37.883Z,99.90
2022-08-29T03:42:06.422Z,99.90
2022-08-29T03:44:37.945Z,99.90
2022-08-29T03:47:05.729Z,99.90
2022-08-29T03:49:33.213Z,99.90
2022-08-29T03:52:00.437Z,99.90
2022-08-29T03:54:27.519Z,99.90
2022-08-29T03:56:55.529Z,99.90
2022-08-29T03:59:23.298Z,99.90
2022-08-29T04:01:50.683Z,99.90
2022-08-29T04:04:37.461Z,99.90
2022-08-29T04:07:06.409Z,99.90
2022-08-29T04:09:33.530Z,99.90
2022-08-29T04:12:00.728Z,99.90
2022-08-29T04:14:27.460Z,99.90
2022-08-29T04:16:54.160Z,99.90
2022-08-29T04:19:21.932Z,99.90
2022-08-29T04:21:48.924Z,99.90
2022-08-29T04:24:16.488Z,99.90
2022-08-29T04:26:43.068Z,99.90
2022-08-29T04:29:11.982Z,99.90
2022-08-29T04:31:40.070Z,99.90
2022-08-29T04:34:08.537Z,99.90
2022-08-29T04:36:36.431Z,99.90
2022-08-29T04:39:05.161Z,99.90
2022-08-29T04:41:33.287Z,99.90
2022-08-29T04:44:00.411Z,99.90
2022-08-29T04:46:27.209Z,99.90
2022-08-29T04:48:54.123Z,99.90
2022-08-29T04:51:21.483Z,99.90
2022-08-29T04:53:49.887Z,99.90
2022-08-29T04:56:16.591Z,99.90
2022-08-29T04:58:44.769Z,99.90
2022-08-29T05:01:17.390Z,99.90
2022-08-29T05:03:44.384Z,99.90
2022-08-29T05:06:13.720Z,99.90
2022-08-29T05:08:41.848Z,99.90
2022-08-29T05:11:22.786Z,99.90
2022-08-29T05:13:51.831Z,99.90
2022-08-29T05:16:18.740Z,99.90
2022-08-29T05:18:46.744Z,99.90
2022-08-29T05:21:27.003Z,99.90
2022-08-29T05:23:56.458Z,99.90
2022-08-29T05:26:23.561Z,99.90
2022-08-29T05:28:51.370Z,99.90
2022-08-29T05:31:18.590Z,99.90
2022-08-29T05:33:45.205Z,99.90
2022-08-29T05:36:12.397Z,99.90
2022-08-29T05:38:39.092Z,99.90
2022-08-29T05:41:07.412Z,99.90
2022-08-29T05:43:34.967Z,99.90
2022-08-29T05:46:11.314Z,99.90
2022-08-29T05:48:45.187Z,99.90
2022-08-29T05:51:16.924Z,99.90
2022-08-29T05:53:43.586Z,99.90
2022-08-29T05:56:10.456Z,99.90
2022-08-29T05:58:37.167Z,99.90
2022-08-29T06:01:04.041Z,99.90
2022-08-29T06:03:31.458Z,99.90
2022-08-29T06:05:58.216Z,99.90
2022-08-29T06:08:24.987Z,99.90
2022-08-29T06:10:51.624Z,99.90
2022-08-29T06:13:18.531Z,99.90
2022-08-29T06:15:45.765Z,99.90
2022-08-29T06:18:13.503Z,99.90
2022-08-29T06:20:40.698Z,99.90
2022-08-29T06:23:07.458Z,99.90
2022-08-29T06:25:39.287Z,99.90
2022-08-29T06:28:07.139Z,99.90
2022-08-29T06:30:33.970Z,99.90
2022-08-29T06:33:01.765Z,99.90
2022-08-29T06:35:28.679Z,99.90
2022-08-29T06:37:55.744Z,99.90
2022-08-29T06:40:22.710Z,99.90
2022-08-29T06:42:49.662Z,99.90
2022-08-29T06:45:16.438Z,99.90
2022-08-29T06:47:45.454Z,99.90
2022-08-29T06:50:12.107Z,99.90
2022-08-29T06:52:38.771Z,99.90
2022-08-29T06:55:08.438Z,99.90
2022-08-29T06:57:35.108Z,99.90
2022-08-29T07:00:01.982Z,99.90
2022-08-29T07:02:41.052Z,99.90
2022-08-29T07:05:08.220Z,99.90
2022-08-29T07:07:35.925Z,99.90
2022-08-29T07:10:02.850Z,99.90
2022-08-29T07:12:29.471Z,99.90
2022-08-29T07:14:57.944Z,99.90
2022-08-29T07:17:25.911Z,99.90
2022-08-29T07:19:53.576Z,99.90
2022-08-29T07:22:20.428Z,99.90
2022-08-29T07:24:47.057Z,99.90
2022-08-29T07:27:14.932Z,99.90
2022-08-29T07:29:41.822Z,99.90
2022-08-29T07:32:08.538Z,99.90
2022-08-29T07:34:36.522Z,99.90
2022-08-29T07:37:05.774Z,99.90
2022-08-29T07:39:32.918Z,99.90
2022-08-29T07:41:59.638Z,99.90
2022-08-29T07:44:26.799Z,99.90
2022-08-29T07:46:58.584Z,99.90
2022-08-29T07:49:40.274Z,99.90
2022-08-29T07:52:07.884Z,99.90
2022-08-29T07:54:34.570Z,99.90
2022-08-29T07:57:01.453Z,99.90
2022-08-29T07:59:28.194Z,99.90
2022-08-29T08:01:55.027Z,99.90
2022-08-29T08:04:21.724Z,99.90
2022-08-29T08:06:50.941Z,99.90
2022-08-29T08:09:17.733Z,99.90
2022-08-29T08:11:44.627Z,99.90
2022-08-29T08:14:12.128Z,99.90
2022-08-29T08:16:39.001Z,99.90
2022-08-29T08:19:11.795Z,99.90
2022-08-29T08:21:38.438Z,99.90
2022-08-29T08:24:19.346Z,99.90
2022-08-29T08:26:47.183Z,99.90
2022-08-29T08:29:13.772Z,99.90
2022-08-29T08:31:49.423Z,99.90
2022-08-29T08:34:17.816Z,99.90
2022-08-29T08:36:45.657Z,99.90
2022-08-29T08:39:14.061Z,99.90
2022-08-29T08:41:59.255Z,99.90
2022-08-29T08:44:49.461Z,99.90
2022-08-29T08:47:25.729Z,99.90
2022-08-29T08:50:01.185Z,99.90
2022-08-29T08:52:37.655Z,99.90
2022-08-29T08:55:14.922Z,99.90
2022-08-29T08:57:48.061Z,99.90
2022-08-29T09:00:14.719Z,99.90
2022-08-29T09:03:02.266Z,99.90
2022-08-29T09:05:40.335Z,99.90
2022-08-29T09:08:35.677Z,99.90
2022-08-29T09:11:41.324Z,99.90
2022-08-29T09:14:14.553Z,99.90
2022-08-29T09:16:49.310Z,99.90
2022-08-29T09:19:18.007Z,99.90
2022-08-29T09:21:55.163Z,99.90
2022-08-29T09:24:36.605Z,99.90
2022-08-29T09:27:03.415Z,99.90
2022-08-29T09:29:30.981Z,99.90
2022-08-29T09:32:07.297Z,99.90
2022-08-29T09:35:04.810Z,99.90
2022-08-29T09:37:33.906Z,99.90
2022-08-29T09:40:15.861Z,99.90
2022-08-29T09:42:59.078Z,99.90
2022-08-29T09:45:26.844Z,99.90
2022-08-29T09:48:14.346Z,99.90
2022-08-29T09:50:41.102Z,99.90
2022-08-29T09:53:14.325Z,99.90
2022-08-29T09:55:52.338Z,99.90
2022-08-29T09:58:21.757Z,99.90
2022-08-29T10:01:09.927Z,99.90
2022-08-29T10:03:43.430Z,99.90
2022-08-29T10:06:17.375Z,99.90
2022-08-29T10:09:01.412Z,99.90
2022-08-29T10:11:56.467Z,99.90
2022-08-29T10:14:46.741Z,99.90
2022-08-29T10:17:56.459Z,99.90
2022-08-29T10:20:38.208Z,99.90
2022-08-29T10:23:18.206Z,99.90
2022-08-29T10:25:45.074Z,99.90
2022-08-29T10:28:37.090Z,99.90
2022-08-29T10:31:10.383Z,99.90
2022-08-29T10:34:08.768Z,99.90
2022-08-29T10:36:43.307Z,99.90
2022-08-29T10:39:33.581Z,99.90
2022-08-29T10:42:09.739Z,99.90
2022-08-29T10:44:51.961Z,99.90
2022-08-29T10:47:34.206Z,99.90
2022-08-29T10:50:47.565Z,99.90
2022-08-29T10:53:17.096Z,99.90
2022-08-29T10:55:53.851Z,99.90
2022-08-29T10:58:26.280Z,99.90
2022-08-29T11:01:22.324Z,99.90
2022-08-29T11:03:58.655Z,99.70
2022-08-29T11:06:31.136Z,99.60
2022-08-29T11:09:15.941Z,99.50
2022-08-29T11:11:55.533Z,99.30
2022-08-29T11:14:28.050Z,99.30
2022-08-29T11:16:56.025Z,99.20
2022-08-29T11:19:30.663Z,99.00
2022-08-29T11:22:04.846Z,98.90
2022-08-29T11:24:36.022Z,99.50
2022-08-29T11:27:18.847Z,99.90
2022-08-29T11:29:51.379Z,99.80
2022-08-29T11:32:21.008Z,99.10
2022-08-29T11:34:52.656Z,98.90
2022-08-29T11:37:28.858Z,99.20
2022-08-29T11:40:47.199Z,99.40
2022-08-29T11:43:12.433Z,98.80
2022-08-29T11:45:42.813Z,98.70
2022-08-29T11:48:39.552Z,98.50
2022-08-29T11:51:37.323Z,98.00
2022-08-29T11:54:42.370Z,98.20
2022-08-29T11:57:08.985Z,97.80
2022-08-29T11:59:56.750Z,97.70
2022-08-29T12:02:30.161Z,97.50
2022-08-29T12:05:16.537Z,97.50
2022-08-29T12:08:14.521Z,97.50
2022-08-29T12:10:55.396Z,97.40
2022-08-29T12:13:43.706Z,97.30
2022-08-29T12:16:12.319Z,97.40
2022-08-29T12:18:45.319Z,97.00
2022-08-29T12:21:38.313Z,96.40
2022-08-29T12:24:29.220Z,96.90
2022-08-29T12:26:56.562Z,96.60
2022-08-29T12:29:33.244Z,96.80
2022-08-29T12:32:32.849Z,96.30
2022-08-29T12:35:17.800Z,95.70
2022-08-29T12:38:09.384Z,95.90
2022-08-29T12:41:18.285Z,96.30
2022-08-29T12:43:46.674Z,96.00
2022-08-29T12:46:28.112Z,96.50
2022-08-29T12:49:17.230Z,96.20
2022-08-29T12:51:47.808Z,96.20
2022-08-29T12:54:14.769Z,95.80
2022-08-29T12:56:48.524Z,96.10
2022-08-29T12:59:20.605Z,96.40
2022-08-29T13:01:50.110Z,96.30
2022-08-29T13:04:32.370Z,95.90
2022-08-29T13:07:08.711Z,95.90
2022-08-29T13:09:44.246Z,95.70
2022-08-29T13:12:10.820Z,95.70
2022-08-29T13:14:56.354Z,95.10
2022-08-29T13:17:45.134Z,96.10
2022-08-29T13:20:43.041Z,95.40
2022-08-29T13:23:12.613Z,95.60
2022-08-29T13:25:51.315Z,95.10
2022-08-29T13:28:40.779Z,94.80
2022-08-29T13:31:23.049Z,95.00
2022-08-29T13:33:49.731Z,94.70
2022-08-29T13:36:31.209Z,95.10
2022-08-29T13:39:25.323Z,94.60
2022-08-29T13:42:00.824Z,94.40
2022-08-29T13:44:46.050Z,94.30
2022-08-29T13:47:14.217Z,94.80
2022-08-29T13:49:41.159Z,94.70
2022-08-29T13:52:10.231Z,94.80
2022-08-29T13:54:40.444Z,94.60
2022-08-29T13:57:11.439Z,94.30
2022-08-29T13:59:38.150Z,94.30
2022-08-29T14:02:10.148Z,94.10
2022-08-29T14:04:39.782Z,94.10
2022-08-29T14:07:11.351Z,93.80
2022-08-29T14:09:40.797Z,94.00
2022-08-29T14:12:08.020Z,93.90
2022-08-29T14:14:34.683Z,94.10
2022-08-29T14:17:01.676Z,93.90
2022-08-29T14:19:29.490Z,93.20
2022-08-29T14:21:59.040Z,93.10
2022-08-29T14:24:29.169Z,93.40
2022-08-29T14:26:57.558Z,93.20
2022-08-29T14:29:31.022Z,92.80
2022-08-29T14:31:58.507Z,93.00
2022-08-29T14:34:25.557Z,93.60
2022-08-29T14:36:57.431Z,93.20
2022-08-29T14:39:26.543Z,93.70
2022-08-29T14:41:54.321Z,93.30
2022-08-29T14:44:21.882Z,93.20
2022-08-29T14:46:49.563Z,92.90
2022-08-29T14:49:16.323Z,92.70
2022-08-29T14:51:44.355Z,92.90
2022-08-29T14:54:11.901Z,92.90
2022-08-29T14:56:49.094Z,92.70
2022-08-29T14:59:16.631Z,92.80
2022-08-29T15:01:43.297Z,92.80
2022-08-29T15:04:11.080Z,92.70
2022-08-29T15:06:38.192Z,92.80
2022-08-29T15:09:05.543Z,92.60
2022-08-29T15:11:32.315Z,92.80
2022-08-29T15:14:04.426Z,93.00
2022-08-29T15:16:31.809Z,92.90
2022-08-29T15:19:44.767Z,93.00
2022-08-29T15:21:45.175Z,93.00
2022-08-29T15:24:11.917Z,93.30
2022-08-29T15:26:38.878Z,93.20
2022-08-29T15:29:05.654Z,92.90
2022-08-29T15:31:32.325Z,93.00
2022-08-29T15:33:58.929Z,92.80
2022-08-29T15:36:25.831Z,92.60
2022-08-29T15:38:52.513Z,92.50
2022-08-29T15:41:19.345Z,92.40
2022-08-29T15:43:46.045Z,92.40
2022-08-29T15:46:12.808Z,92.60
2022-08-29T15:48:39.621Z,92.60
2022-08-29T15:51:06.354Z,92.80
2022-08-29T15:53:33.045Z,92.80
2022-08-29T15:55:59.718Z,92.60
2022-08-29T15:58:26.776Z,92.50
2022-08-29T16:00:53.388Z,92.60
2022-08-29T16:03:20.056Z,93.00
2022-08-29T16:05:46.772Z,92.50
2022-08-29T16:08:17.547Z,92.60
2022-08-29T16:10:44.955Z,92.70
2022-08-29T16:13:11.707Z,92.50
2022-08-29T16:15:38.901Z,92.60
2022-08-29T16:18:06.665Z,93.00
2022-08-29T16:20:34.029Z,93.00
2022-08-29T16:23:01.895Z,92.80
2022-08-29T16:25:30.940Z,93.00
2022-08-29T16:27:59.253Z,93.20
2022-08-29T16:30:25.938Z,93.10
2022-08-29T16:32:55.147Z,93.50
2022-08-29T16:35:22.123Z,93.20
2022-08-29T16:38:02.548Z,93.20
2022-08-29T16:40:30.270Z,93.20
2022-08-29T16:42:56.961Z,93.40
2022-08-29T16:45:23.755Z,93.90
2022-08-29T16:47:54.128Z,93.80
2022-08-29T16:50:24.173Z,93.80
2022-08-29T16:52:50.771Z,94.10
2022-08-29T16:55:17.403Z,94.10
2022-08-29T16:58:04.003Z,94.10
2022-08-29T17:00:30.949Z,94.30
2022-08-29T17:02:57.598Z,94.20
2022-08-29T17:05:24.460Z,94.10
2022-08-29T17:07:51.158Z,94.20
2022-08-29T17:10:17.873Z,94.40
2022-08-29T17:12:44.555Z,94.40
2022-08-29T17:15:11.243Z,94.40
2022-08-29T17:17:37.940Z,94.30
2022-08-29T17:20:04.857Z,94.50
2022-08-29T17:22:31.495Z,94.60
2022-08-29T17:24:58.197Z,94.80
2022-08-29T17:27:29.867Z,94.90
2022-08-29T17:29:56.870Z,95.00
2022-08-29T17:32:23.552Z,95.10
2022-08-29T17:34:50.537Z,95.50
2022-08-29T17:37:17.243Z,95.40
2022-08-29T17:39:43.913Z,95.60
2022-08-29T17:42:10.710Z,95.50
2022-08-29T17:44:37.879Z,95.60
2022-08-29T17:47:04.695Z,95.70
2022-08-29T17:49:31.411Z,95.70
2022-08-29T17:51:58.352Z,95.80
2022-08-29T17:54:26.449Z,96.40
2022-08-29T17:56:58.948Z,95.90
2022-08-29T17:59:28.762Z,96.10
2022-08-29T18:01:56.627Z,96.10
2022-08-29T18:04:24.229Z,96.20
2022-08-29T18:06:51.878Z,96.30
2022-08-29T18:09:19.490Z,96.50
2022-08-29T18:11:49.541Z,96.60
2022-08-29T18:14:17.647Z,96.70
2022-08-29T18:16:44.410Z,96.70
2022-08-29T18:19:13.409Z,96.80
2022-08-29T18:21:41.349Z,96.80
2022-08-29T18:24:13.553Z,97.10
2022-08-29T18:26:41.610Z,97.20
2022-08-29T18:29:08.361Z,97.20
2022-08-29T18:31:35.132Z,97.20
2022-08-29T18:34:02.137Z,97.40
2022-08-29T18:36:30.894Z,97.70
2022-08-29T18:38:57.842Z,97.90
2022-08-29T18:41:24.625Z,98.00
2022-08-29T18:43:51.780Z,97.90
2022-08-29T18:46:19.058Z,97.90
2022-08-29T18:48:46.325Z,98.00
2022-08-29T18:51:14.522Z,98.10
2022-08-29T18:53:41.317Z,98.30
2022-08-29T18:56:07.970Z,98.40
2022-08-29T18:58:35.846Z,98.40
2022-08-29T19:01:11.124Z,98.50
2022-08-29T19:03:38.234Z,98.40
2022-08-29T19:06:05.120Z,98.60
2022-08-29T19:08:32.190Z,98.60
2022-08-29T19:11:00.180Z,98.70
2022-08-29T19:13:27.095Z,98.80
2022-08-29T19:15:58.990Z,98.80
2022-08-29T19:18:27.077Z,98.80
2022-08-29T19:21:02.815Z,98.90
2022-08-29T19:23:32.631Z,99.00
2022-08-29T19:26:00.457Z,99.20
2022-08-29T19:28:27.238Z,99.30
2022-08-29T19:30:54.027Z,99.50
2022-08-29T19:33:20.794Z,99.90
2022-08-29T19:35:49.485Z,99.90
2022-08-29T19:38:18.238Z,99.90
2022-08-29T19:40:48.516Z,99.90
2022-08-29T19:43:15.783Z,99.90
2022-08-29T19:45:44.222Z,99.90
2022-08-29T19:48:15.348Z,99.90
2022-08-29T19:50:43.428Z,99.90
2022-08-29T19:53:19.943Z,99.90
2022-08-29T19:55:53.670Z,99.90
2022-08-29T19:58:21.327Z,99.90
2022-08-29T20:00:48.023Z,99.90
2022-08-29T20:03:16.275Z,99.90
2022-08-29T20:05:43.145Z,99.90
2022-08-29T20:08:10.196Z,99.90
2022-08-29T20:10:36.843Z,99.90
2022-08-29T20:13:04.195Z,99.90
2022-08-29T20:15:31.009Z,99.90
2022-08-29T20:17:59.831Z,99.90
2022-08-29T20:20:31.596Z,99.90
2022-08-29T20:22:58.306Z,99.90
2022-08-29T20:25:25.031Z,99.90
2022-08-29T20:27:53.048Z,99.90
2022-08-29T20:30:23.799Z,99.90
2022-08-29T20:32:51.707Z,99.90
2022-08-29T20:35:39.531Z,99.90
2022-08-29T20:38:07.217Z,99.90
2022-08-29T20:40:37.392Z,99.90
2022-08-29T20:43:04.580Z,99.90
2022-08-29T20:45:31.186Z,99.90
2022-08-29T20:47:58.087Z,99.90
2022-08-29T20:50:25.515Z,99.90
2022-08-29T20:52:53.849Z,99.90
2022-08-29T20:55:20.896Z,99.90
2022-08-29T20:57:47.485Z,99.90
2022-08-29T21:00:14.576Z,99.90
2022-08-29T21:03:00.293Z,99.90
2022-08-29T21:05:45.678Z,99.90
2022-08-29T21:08:18.332Z,99.90
2022-08-29T21:10:46.395Z,99.90
2022-08-29T21:13:14.159Z,99.90
2022-08-29T21:15:41.719Z,99.90
2022-08-29T21:18:10.619Z,99.90
2022-08-29T21:20:53.718Z,99.90
2022-08-29T21:23:22.265Z,99.90
2022-08-29T21:25:53.690Z,99.90
2022-08-29T21:28:20.389Z,99.90
2022-08-29T21:30:47.023Z,99.90
2022-08-29T21:33:13.678Z,99.90
2022-08-29T21:35:41.961Z,99.90
2022-08-29T21:38:09.591Z,99.90
2022-08-29T21:40:44.057Z,99.90
2022-08-29T21:43:17.727Z,99.90
2022-08-29T21:45:44.520Z,99.90
2022-08-29T21:48:11.190Z,99.90
2022-08-29T21:50:38.458Z,99.90
2022-08-29T21:53:05.605Z,99.90
2022-08-29T21:55:32.933Z,99.90
2022-08-29T21:58:00.619Z,99.90
2022-08-29T22:00:34.258Z,99.90
2022-08-29T22:03:03.851Z,99.90
2022-08-29T22:05:31.504Z,99.90
2022-08-29T22:07:59.050Z,99.90
2022-08-29T22:10:30.240Z,99.90
2022-08-29T22:12:57.479Z,99.90
2022-08-29T22:15:43.626Z,99.90
2022-08-29T22:18:12.256Z,99.90
2022-08-29T22:20:38.947Z,99.90
2022-08-29T22:23:06.026Z,99.90
2022-08-29T22:25:32.849Z,99.90
2022-08-29T22:27:59.632Z,99.90
2022-08-29T22:30:32.074Z,99.90
2022-08-29T22:33:00.307Z,99.90
2022-08-29T22:35:28.351Z,99.90
2022-08-29T22:37:55.105Z,99.90
2022-08-29T22:40:21.917Z,99.90
2022-08-29T22:42:48.688Z,99.90
2022-08-29T22:45:16.833Z,99.90
2022-08-29T22:47:45.088Z,99.90
2022-08-29T22:50:17.812Z,99.90
2022-08-29T22:52:44.903Z,99.90
2022-08-29T22:55:15.599Z,99.90
2022-08-29T22:57:45.033Z,99.90
2022-08-29T23:00:15.861Z,99.90
2022-08-29T23:02:42.975Z,99.90
2022-08-29T23:05:10.368Z,99.90
2022-08-29T23:07:37.231Z,99.90
2022-08-29T23:10:05.805Z,99.90
2022-08-29T23:12:32.653Z,99.90
2022-08-29T23:14:59.303Z,99.90
2022-08-29T23:17:25.909Z,99.90
2022-08-29T23:19:52.631Z,99.90
2022-08-29T23:22:20.774Z,99.90
2022-08-29T23:24:51.605Z,99.90
2022-08-29T23:27:25.450Z,99.90
2022-08-29T23:29:52.451Z,99.90
2022-08-29T23:32:19.105Z,99.90
2022-08-29T23:34:45.752Z,99.90
2022-08-29T23:37:12.373Z,99.90
2022-08-29T23:39:39.003Z,99.90
2022-08-29T23:42:06.029Z,99.90
2022-08-29T23:44:32.641Z,99.90
2022-08-29T23:46:59.258Z,99.90
2022-08-29T23:49:25.869Z,99.90
2022-08-29T23:51:52.507Z,99.90
2022-08-29T23:54:19.319Z,99.90
2022-08-29T23:56:45.986Z,99.90
2022-08-29T23:59:32.582Z,99.90
